Time;durP1;ratioP1;P1;durP2;ratioP2;P2;SDS_P1;SDS_P2;PMS_P1;PMS_P2;Temp;Humidity;BMP_temperature;BMP_pressure;BME280_temperature;BME280_humidity;BME280_pressure;Samples;Min_cycle;Max_cycle;Signal;HPM_P1;HPM_P2
2023/09/20 00:00:57;;;;;;;3.80;1.92;;;16.90;99.90;;;;;;5154988;27;20042;-77
2023/09/20 00:03:25;;;;;;;3.45;2.25;;;16.80;99.90;;;;;;5155432;27;20034;-78
2023/09/20 00:05:52;;;;;;;3.25;1.60;;;16.90;99.90;;;;;;5155055;27;20066;-75
2023/09/20 00:08:18;;;;;;;4.95;1.83;;;16.80;99.90;;;;;;5155186;27;20030;-77
2023/09/20 00:10:45;;;;;;;4.82;2.42;;;16.90;99.90;;;;;;5155144;27;20039;-77
2023/09/20 00:13:11;;;;;;;5.22;2.30;;;16.90;99.90;;;;;;5155313;27;20064;-76
2023/09/20 00:15:39;;;;;;;4.47;2.33;;;16.90;99.90;;;;;;5136419;27;20038;-76
2023/09/20 00:18:04;;;;;;;5.68;2.20;;;16.90;99.90;;;;;;5154972;27;20053;-77
2023/09/20 00:20:30;;;;;;;5.05;2.55;;;17.00;99.90;;;;;;5155152;27;20039;-76
2023/09/20 00:22:56;;;;;;;4.88;1.92;;;17.00;99.90;;;;;;5155374;27;20035;-76
2023/09/20 00:25:21;;;;;;;4.32;2.00;;;17.00;99.90;;;;;;5154944;27;20145;-76
2023/09/20 00:27:47;;;;;;;3.17;1.83;;;17.00;99.90;;;;;;5154593;27;20039;-76
2023/09/20 00:30:19;;;;;;;6.40;2.00;;;17.00;99.90;;;;;;5154611;27;20070;-76
2023/09/20 00:32:45;;;;;;;7.20;3.13;;;17.00;99.90;;;;;;5153939;27;20478;-75
2023/09/20 00:35:12;;;;;;;5.88;2.15;;;17.00;99.90;;;;;;5135974;27;20040;-78
2023/09/20 00:37:39;;;;;;;5.22;2.10;;;17.00;99.90;;;;;;5154231;27;20037;-76
2023/09/20 00:40:08;;;;;;;6.38;2.35;;;17.10;99.90;;;;;;5155125;27;20532;-76
2023/09/20 00:42:34;;;;;;;4.22;2.17;;;17.10;99.90;;;;;;5133680;27;20459;-76
2023/09/20 00:45:01;;;;;;;5.25;2.35;;;17.10;99.90;;;;;;5149508;27;20049;-76
2023/09/20 00:47:27;;;;;;;5.13;2.15;;;17.20;99.90;;;;;;5154768;27;20074;-78
2023/09/20 00:49:53;;;;;;;3.95;2.13;;;17.20;99.90;;;;;;5132672;27;20096;-74
2023/09/20 00:52:19;;;;;;;5.43;2.03;;;17.20;99.90;;;;;;5143721;27;20031;-77
2023/09/20 00:54:45;;;;;;;3.83;2.17;;;17.20;99.90;;;;;;5154886;27;20117;-76
2023/09/20 00:57:11;;;;;;;4.15;2.17;;;17.20;99.90;;;;;;5154940;27;20045;-76
2023/09/20 00:59:39;;;;;;;4.88;2.10;;;17.20;99.90;;;;;;5154630;27;20034;-77
2023/09/20 01:02:06;;;;;;;4.03;2.17;;;17.20;99.90;;;;;;5127934;28;20031;-77
2023/09/20 01:04:34;;;;;;;3.42;1.88;;;17.10;99.90;;;;;;5131128;27;20035;-77
2023/09/20 01:07:00;;;;;;;4.43;1.90;;;17.10;99.90;;;;;;5133217;28;20079;-77
2023/09/20 01:09:26;;;;;;;5.18;2.33;;;17.10;99.90;;;;;;5152868;27;20400;-76
2023/09/20 01:11:52;;;;;;;3.95;2.00;;;17.20;99.90;;;;;;5137204;27;20093;-75
2023/09/20 01:14:20;;;;;;;5.00;1.98;;;17.20;99.90;;;;;;5154181;27;20042;-77
2023/09/20 01:16:46;;;;;;;3.67;1.73;;;17.10;99.90;;;;;;5154619;27;20475;-76
2023/09/20 01:19:11;;;;;;;4.07;2.10;;;17.20;99.90;;;;;;5154645;27;20050;-76
2023/09/20 01:21:41;;;;;;;5.82;2.00;;;17.20;99.90;;;;;;5119285;27;20043;-76
2023/09/20 01:24:10;;;;;;;3.10;1.80;;;17.20;99.90;;;;;;5154862;27;20039;-76
2023/09/20 01:26:39;;;;;;;4.20;2.00;;;17.20;99.90;;;;;;5154535;27;20038;-76
2023/09/20 01:29:05;;;;;;;3.58;1.77;;;17.20;99.90;;;;;;5154725;27;20042;-76
2023/09/20 01:31:31;;;;;;;5.50;1.95;;;17.20;99.90;;;;;;5154158;27;20049;-76
2023/09/20 01:33:57;;;;;;;4.32;1.98;;;17.30;99.90;;;;;;5132431;28;20047;-76
2023/09/20 01:36:22;;;;;;;4.53;1.92;;;17.20;99.90;;;;;;5132459;28;20114;-76
2023/09/20 01:38:48;;;;;;;3.83;1.90;;;17.30;99.90;;;;;;5132985;28;20032;-75
2023/09/20 01:41:14;;;;;;;4.32;1.98;;;17.20;99.90;;;;;;5134081;27;20122;-75
2023/09/20 01:43:41;;;;;;;3.05;1.60;;;17.30;99.90;;;;;;5133674;27;20460;-76
2023/09/20 01:46:07;;;;;;;5.40;2.00;;;17.30;99.90;;;;;;5133578;27;20051;-76
2023/09/20 01:48:34;;;;;;;4.57;2.10;;;17.30;99.90;;;;;;5133633;27;20045;-77
2023/09/20 01:50:59;;;;;;;4.63;1.92;;;17.30;99.90;;;;;;5132987;28;20383;-75
2023/09/20 01:53:25;;;;;;;6.22;1.95;;;17.30;99.90;;;;;;5133635;28;20150;-77
2023/09/20 01:55:51;;;;;;;2.95;1.83;;;17.20;99.90;;;;;;5133824;28;20043;-77
2023/09/20 01:58:17;;;;;;;5.35;1.90;;;17.30;99.90;;;;;;5132509;28;20127;-77
2023/09/20 02:00:42;;;;;;;4.78;1.80;;;17.20;99.90;;;;;;5132517;28;20115;-77
2023/09/20 02:03:13;;;;;;;3.95;1.85;;;17.20;99.90;;;;;;5133725;27;20039;-78
2023/09/20 02:05:40;;;;;;;5.97;1.95;;;17.20;99.90;;;;;;5137208;27;20043;-77
2023/09/20 02:08:08;;;;;;;8.52;2.10;;;17.20;99.90;;;;;;5137155;27;20050;-76
2023/09/20 02:10:36;;;;;;;5.60;2.28;;;17.30;99.90;;;;;;5132768;27;20119;-76
2023/09/20 02:13:03;;;;;;;3.03;1.90;;;17.30;99.90;;;;;;5132846;27;20039;-77
2023/09/20 02:15:30;;;;;;;4.30;1.80;;;17.30;99.90;;;;;;5130109;27;20093;-76
2023/09/20 02:17:56;;;;;;;4.82;1.95;;;17.30;99.90;;;;;;5135396;27;20130;-77
2023/09/20 02:20:23;;;;;;;4.88;1.85;;;17.30;99.90;;;;;;5133673;27;20071;-75
2023/09/20 02:22:53;;;;;;;4.25;1.70;;;17.30;99.90;;;;;;5136790;27;20082;-77
2023/09/20 02:25:26;;;;;;;4.38;1.70;;;17.30;99.90;;;;;;5136841;27;20039;-76
2023/09/20 02:27:57;;;;;;;4.10;1.65;;;17.30;99.90;;;;;;5136788;27;20047;-75
2023/09/20 02:30:24;;;;;;;3.63;1.58;;;17.30;99.90;;;;;;5136436;27;20035;-76
2023/09/20 02:32:57;;;;;;;3.60;1.63;;;17.40;99.90;;;;;;5118712;27;20410;-75
2023/09/20 02:35:30;;;;;;;3.70;1.60;;;17.40;99.90;;;;;;5143308;27;20039;-77
2023/09/20 02:37:57;;;;;;;7.22;1.80;;;17.40;99.90;;;;;;5157004;27;20060;-75
2023/09/20 02:40:26;;;;;;;5.05;2.20;;;17.50;99.90;;;;;;5157616;27;20066;-75
2023/09/20 02:42:59;;;;;;;5.88;1.98;;;17.40;99.90;;;;;;5157114;27;20053;-76
2023/09/20 02:45:27;;;;;;;2.92;1.70;;;17.40;99.90;;;;;;5157733;27;20408;-76
2023/09/20 02:47:54;;;;;;;5.32;1.90;;;17.40;99.90;;;;;;5157495;27;20042;-75
2023/09/20 02:50:25;;;;;;;7.28;2.20;;;17.40;99.90;;;;;;5157217;27;20450;-77
2023/09/20 02:52:52;;;;;;;4.72;1.95;;;17.40;99.90;;;;;;5139460;27;20054;-76
2023/09/20 02:55:20;;;;;;;3.20;1.55;;;17.50;99.90;;;;;;5157050;27;20030;-77
2023/09/20 02:57:51;;;;;;;6.18;2.00;;;17.50;99.90;;;;;;5157034;27;20047;-76
2023/09/20 03:00:21;;;;;;;3.65;1.63;;;17.50;99.90;;;;;;5157024;27;20042;-77
2023/09/20 03:02:49;;;;;;;4.50;1.63;;;17.40;99.90;;;;;;5157283;27;20398;-75
2023/09/20 03:05:25;;;;;;;5.03;1.80;;;17.40;99.90;;;;;;5156668;27;20230;-76
2023/09/20 03:07:53;;;;;;;4.65;1.90;;;17.30;99.90;;;;;;5137557;27;20043;-78
2023/09/20 03:10:21;;;;;;;6.18;2.10;;;17.30;99.90;;;;;;5156218;27;20045;-77
2023/09/20 03:12:51;;;;;;;5.53;2.20;;;17.30;99.90;;;;;;5157202;27;20050;-76
2023/09/20 03:15:24;;;;;;;5.00;1.90;;;17.30;99.90;;;;;;5135055;27;20039;-77
2023/09/20 03:18:17;;;;;;;4.97;1.85;;;17.30;99.90;;;;;;5156679;27;20060;-77
2023/09/20 03:20:44;;;;;;;3.78;2.00;;;17.20;99.90;;;;;;5118630;27;20661;-75
2023/09/20 03:23:10;;;;;;;5.55;2.05;;;17.20;99.90;;;;;;5155071;27;20043;-77
2023/09/20 03:25:36;;;;;;;4.40;1.98;;;17.20;99.90;;;;;;5136704;27;20043;-76
2023/09/20 03:28:03;;;;;;;7.75;2.08;;;17.20;99.90;;;;;;5154902;27;20412;-76
2023/09/20 03:30:31;;;;;;;4.60;1.90;;;17.20;99.90;;;;;;5155354;27;20366;-76
2023/09/20 03:32:58;;;;;;;6.15;2.30;;;17.10;99.90;;;;;;5156123;27;20475;-76
2023/09/20 03:35:24;;;;;;;4.15;1.90;;;17.10;99.90;;;;;;5156330;27;20046;-76
2023/09/20 03:37:50;;;;;;;3.33;1.95;;;17.20;99.90;;;;;;5155663;27;20074;-76
2023/09/20 03:40:17;;;;;;;4.50;1.98;;;17.10;99.90;;;;;;5156024;27;20085;-76
2023/09/20 03:42:44;;;;;;;3.67;1.83;;;17.10;99.90;;;;;;5137457;27;20091;-75
2023/09/20 03:45:11;;;;;;;6.65;2.17;;;17.10;99.90;;;;;;5155674;27;20111;-76
2023/09/20 03:47:47;;;;;;;3.22;1.63;;;17.10;99.90;;;;;;5155739;27;20046;-77
2023/09/20 03:50:13;;;;;;;5.80;1.73;;;17.10;99.90;;;;;;5156066;27;20088;-76
2023/09/20 03:52:39;;;;;;;5.65;2.38;;;17.00;99.90;;;;;;5156267;27;20034;-76
2023/09/20 03:55:06;;;;;;;6.18;2.00;;;16.90;99.90;;;;;;5137218;27;20046;-77
2023/09/20 03:57:33;;;;;;;5.88;2.30;;;16.90;99.90;;;;;;5119683;27;20431;-76
2023/09/20 03:59:58;;;;;;;5.03;1.95;;;16.80;99.90;;;;;;5155962;27;20070;-76
2023/09/20 04:02:25;;;;;;;4.55;1.90;;;16.70;99.90;;;;;;5155203;27;20074;-76
2023/09/20 04:04:51;;;;;;;5.35;2.40;;;16.70;99.90;;;;;;5137199;27;20550;-76
2023/09/20 04:07:18;;;;;;;6.13;2.03;;;16.70;99.90;;;;;;5133549;27;20130;-77
2023/09/20 04:09:47;;;;;;;4.68;1.98;;;16.70;99.90;;;;;;5126955;27;20045;-75
2023/09/20 04:12:13;;;;;;;3.55;2.00;;;16.60;99.90;;;;;;5136863;27;20030;-75
2023/09/20 04:14:41;;;;;;;4.88;2.20;;;16.60;99.90;;;;;;5155738;27;20041;-76
2023/09/20 04:17:07;;;;;;;3.83;1.98;;;16.50;99.90;;;;;;5155465;27;20536;-77
2023/09/20 04:19:33;;;;;;;6.97;2.15;;;16.50;99.90;;;;;;5134541;27;20082;-76
2023/09/20 04:22:04;;;;;;;5.63;2.20;;;16.40;99.90;;;;;;5155016;27;20038;-77
2023/09/20 04:24:30;;;;;;;4.05;1.95;;;16.40;99.90;;;;;;5144329;27;20042;-76
2023/09/20 04:26:56;;;;;;;4.57;2.08;;;16.40;99.90;;;;;;5155221;27;20047;-76
2023/09/20 04:29:22;;;;;;;5.50;2.10;;;16.30;99.90;;;;;;5155110;27;20030;-76
2023/09/20 04:31:49;;;;;;;4.18;1.70;;;16.30;99.90;;;;;;5136658;27;20038;-76
2023/09/20 04:34:15;;;;;;;5.57;2.15;;;16.20;99.90;;;;;;5154719;27;20054;-77
2023/09/20 04:36:44;;;;;;;4.68;2.00;;;16.20;99.90;;;;;;5154866;27;20038;-76
2023/09/20 04:39:11;;;;;;;5.40;2.30;;;16.20;99.90;;;;;;5154635;27;20454;-76
2023/09/20 04:41:37;;;;;;;4.38;1.90;;;16.10;99.90;;;;;;5155024;27;20044;-76
2023/09/20 04:44:05;;;;;;;5.15;2.00;;;16.10;99.90;;;;;;5155256;27;20043;-77
2023/09/20 04:46:35;;;;;;;4.72;1.98;;;16.00;99.90;;;;;;5154698;27;20082;-77
2023/09/20 04:49:03;;;;;;;5.18;2.03;;;16.00;99.90;;;;;;5155022;27;20038;-77
2023/09/20 04:51:30;;;;;;;4.65;2.17;;;16.00;99.90;;;;;;5119148;27;20049;-75
2023/09/20 04:53:56;;;;;;;3.25;1.90;;;15.90;99.90;;;;;;5155004;27;20045;-76
2023/09/20 04:56:22;;;;;;;6.55;2.05;;;15.90;99.90;;;;;;5155073;27;20031;-76
2023/09/20 04:58:49;;;;;;;7.07;2.45;;;16.00;99.90;;;;;;5154621;27;20049;-76
2023/09/20 05:01:15;;;;;;;3.35;1.77;;;15.90;99.90;;;;;;5153786;27;20109;-75
2023/09/20 05:03:41;;;;;;;4.90;2.17;;;15.90;99.90;;;;;;5154792;27;20114;-77
2023/09/20 05:06:07;;;;;;;2.78;1.85;;;15.80;99.90;;;;;;5155188;27;20084;-76
2023/09/20 05:08:33;;;;;;;3.65;1.80;;;15.80;99.90;;;;;;5154400;27;20027;-76
2023/09/20 05:10:59;;;;;;;6.05;1.95;;;15.80;99.90;;;;;;5136418;27;20387;-76
2023/09/20 05:13:25;;;;;;;4.32;2.22;;;15.80;99.90;;;;;;5154587;27;20045;-76
2023/09/20 05:15:50;;;;;;;5.47;2.28;;;15.80;99.90;;;;;;5154428;27;20038;-77
2023/09/20 05:18:17;;;;;;;3.72;1.80;;;15.70;99.90;;;;;;5119322;27;20043;-76
2023/09/20 05:20:46;;;;;;;3.60;2.20;;;15.80;99.90;;;;;;5136534;27;20061;-77
2023/09/20 05:23:12;;;;;;;3.83;1.70;;;15.80;99.90;;;;;;5154711;27;20045;-75
2023/09/20 05:25:38;;;;;;;5.35;1.90;;;15.80;99.90;;;;;;5154767;27;20039;-76
2023/09/20 05:28:06;;;;;;;4.50;1.70;;;15.80;99.90;;;;;;5154668;27;20118;-75
2023/09/20 05:30:33;;;;;;;5.10;1.80;;;15.90;99.90;;;;;;5154376;27;20027;-76
2023/09/20 05:32:59;;;;;;;3.72;1.80;;;15.90;99.90;;;;;;5153758;27;20045;-76
2023/09/20 05:35:27;;;;;;;4.07;1.67;;;15.90;99.90;;;;;;5132379;28;20467;-78
2023/09/20 05:37:53;;;;;;;4.05;1.90;;;15.90;99.90;;;;;;5152552;27;20037;-75
2023/09/20 05:40:19;;;;;;;4.85;1.70;;;15.90;99.90;;;;;;5155904;27;20030;-76
2023/09/20 05:42:50;;;;;;;4.00;2.10;;;15.90;99.90;;;;;;5158227;27;20046;-76
2023/09/20 05:45:19;;;;;;;6.88;2.00;;;15.90;99.90;;;;;;5139916;27;20089;-77
2023/09/20 05:47:45;;;;;;;4.60;1.90;;;15.90;99.90;;;;;;5158325;27;20046;-77
2023/09/20 05:50:13;;;;;;;3.13;1.45;;;16.00;99.90;;;;;;5139648;27;20473;-77
2023/09/20 05:52:41;;;;;;;5.25;2.05;;;16.00;99.90;;;;;;5140155;27;20046;-77
2023/09/20 05:55:14;;;;;;;4.30;1.63;;;15.90;99.90;;;;;;5158449;27;20081;-77
2023/09/20 05:57:43;;;;;;;3.83;1.83;;;16.00;99.90;;;;;;5158353;27;20038;-76
2023/09/20 06:00:16;;;;;;;2.83;1.50;;;16.00;99.90;;;;;;5157862;27;20035;-77
2023/09/20 06:02:44;;;;;;;3.17;1.73;;;16.00;99.90;;;;;;5157897;27;20122;-77
2023/09/20 06:05:11;;;;;;;4.25;1.77;;;16.00;99.90;;;;;;5158257;27;20050;-76
2023/09/20 06:07:38;;;;;;;3.67;1.85;;;16.10;99.90;;;;;;5152579;27;20070;-76
2023/09/20 06:10:04;;;;;;;5.25;1.77;;;16.10;99.90;;;;;;5144737;27;20042;-76
2023/09/20 06:12:31;;;;;;;4.07;1.88;;;16.20;99.90;;;;;;5139307;27;20041;-65
2023/09/20 06:14:57;;;;;;;3.35;1.70;;;16.20;99.90;;;;;;5130349;27;20521;-65
2023/09/20 06:17:23;;;;;;;4.57;1.67;;;16.20;99.90;;;;;;5157108;27;20117;-66
2023/09/20 06:19:48;;;;;;;5.93;2.00;;;16.30;99.90;;;;;;5157705;27;20034;-65
2023/09/20 06:22:15;;;;;;;4.35;1.70;;;16.30;99.90;;;;;;5157816;27;20034;-65
2023/09/20 06:24:49;;;;;;;3.17;1.77;;;16.30;99.90;;;;;;5157260;27;20049;-66
2023/09/20 06:27:15;;;;;;;3.50;1.60;;;16.50;99.90;;;;;;5157763;27;20039;-66
2023/09/20 06:29:41;;;;;;;5.22;1.98;;;16.60;99.90;;;;;;5157614;27;20477;-67
2023/09/20 06:32:08;;;;;;;4.45;1.70;;;16.60;99.90;;;;;;5157140;27;20447;-65
2023/09/20 06:34:33;;;;;;;6.60;2.22;;;16.70;99.90;;;;;;5157465;27;20125;-66
2023/09/20 06:36:59;;;;;;;4.43;1.95;;;16.70;99.90;;;;;;5157056;27;20070;-67
2023/09/20 06:39:25;;;;;;;3.40;2.10;;;16.70;99.90;;;;;;5121929;27;20082;-65
2023/09/20 06:41:51;;;;;;;3.92;2.28;;;16.80;99.90;;;;;;5138952;27;20387;-65
2023/09/20 06:44:17;;;;;;;6.72;2.22;;;16.80;99.90;;;;;;5157393;27;20043;-65
2023/09/20 06:46:43;;;;;;;3.08;1.88;;;16.80;99.90;;;;;;5156850;27;20125;-66
2023/09/20 06:49:09;;;;;;;2.78;1.60;;;16.80;99.90;;;;;;5135647;27;20031;-66
2023/09/20 06:51:35;;;;;;;4.15;2.08;;;16.80;99.90;;;;;;5156118;27;20050;-66
2023/09/20 06:54:01;;;;;;;4.35;1.92;;;16.80;99.90;;;;;;5156663;27;20420;-66
2023/09/20 06:56:26;;;;;;;4.22;2.42;;;16.90;99.90;;;;;;5156827;27;20085;-64
2023/09/20 06:58:55;;;;;;;3.25;1.95;;;17.00;99.90;;;;;;5157135;27;20046;-64
2023/09/20 07:01:25;;;;;;;3.80;2.42;;;17.00;99.90;;;;;;5156624;27;20038;-64
2023/09/20 07:03:52;;;;;;;4.00;1.70;;;17.10;99.90;;;;;;5156869;27;20042;-65
2023/09/20 07:06:18;;;;;;;3.90;1.92;;;17.20;99.90;;;;;;5156805;27;20065;-65
2023/09/20 07:08:45;;;;;;;3.67;1.85;;;17.20;99.90;;;;;;5156332;27;20122;-65
2023/09/20 07:11:13;;;;;;;6.68;2.55;;;17.20;99.90;;;;;;5134888;27;20049;-65
2023/09/20 07:13:38;;;;;;;5.45;1.98;;;17.30;99.90;;;;;;5138449;27;20039;-65
2023/09/20 07:16:05;;;;;;;4.65;2.10;;;17.30;99.90;;;;;;5141712;27;20047;-65
2023/09/20 07:18:34;;;;;;;3.80;1.98;;;17.30;99.90;;;;;;5154875;27;20386;-65
2023/09/20 07:20:59;;;;;;;4.40;2.13;;;17.30;99.90;;;;;;5154356;27;20471;-65
2023/09/20 07:23:25;;;;;;;3.60;1.65;;;17.30;99.90;;;;;;5155262;27;20045;-65
2023/09/20 07:25:51;;;;;;;3.97;2.13;;;17.30;99.90;;;;;;5150291;27;20467;-64
2023/09/20 07:28:17;;;;;;;7.07;1.85;;;17.30;99.90;;;;;;5155658;27;20089;-65
2023/09/20 07:30:46;;;;;;;4.03;2.17;;;17.30;99.90;;;;;;5154622;27;20114;-66
2023/09/20 07:33:23;;;;;;;4.30;2.05;;;17.30;99.90;;;;;;5154381;27;20082;-65
2023/09/20 07:35:58;;;;;;;4.65;1.85;;;17.40;99.90;;;;;;5154186;27;20125;-65
2023/09/20 07:38:29;;;;;;;4.30;2.00;;;17.30;99.90;;;;;;5154879;27;20038;-65
2023/09/20 07:41:02;;;;;;;4.45;2.10;;;17.40;99.90;;;;;;5155263;27;20038;-65
2023/09/20 07:43:28;;;;;;;4.88;2.20;;;17.40;99.90;;;;;;5155331;27;20052;-66
2023/09/20 07:45:54;;;;;;;3.15;1.80;;;17.50;99.90;;;;;;5151043;27;20035;-65
2023/09/20 07:48:21;;;;;;;5.53;2.20;;;17.50;99.90;;;;;;5136682;27;20039;-65
2023/09/20 07:50:51;;;;;;;5.65;2.42;;;17.50;99.90;;;;;;5154976;27;20051;-65
2023/09/20 07:53:21;;;;;;;5.60;2.03;;;17.80;99.90;;;;;;5155018;27;20074;-64
2023/09/20 07:56:00;;;;;;;4.32;1.90;;;18.00;99.90;;;;;;5154797;27;20074;-65
2023/09/20 07:58:27;;;;;;;4.05;2.03;;;18.10;99.90;;;;;;5133436;27;20051;-64
2023/09/20 08:00:56;;;;;;;4.45;2.05;;;18.30;99.90;;;;;;5148722;27;20053;-65
2023/09/20 08:03:23;;;;;;;5.15;2.50;;;18.40;99.90;;;;;;5154653;27;20043;-64
2023/09/20 08:05:50;;;;;;;3.72;1.98;;;18.50;99.90;;;;;;5154721;27;20042;-64
2023/09/20 08:08:16;;;;;;;3.22;2.03;;;18.60;99.90;;;;;;5153349;27;20038;-65
2023/09/20 08:10:43;;;;;;;4.03;1.88;;;18.60;99.90;;;;;;5145755;27;20043;-65
2023/09/20 08:13:10;;;;;;;3.13;1.63;;;18.60;99.90;;;;;;5129149;27;20082;-64
2023/09/20 08:15:41;;;;;;;4.45;2.00;;;18.60;99.90;;;;;;5148604;27;20046;-64
2023/09/20 08:20:53;;;;;;;5.78;1.90;;;18.70;99.90;;;;;;5145431;27;20083;-65
2023/09/20 09:01:48;;;;;;;4.50;1.75;;;18.60;99.90;;;;;;5149632;27;20074;-66
2023/09/20 09:04:17;;;;;;;3.22;1.60;;;18.60;99.90;;;;;;5133079;27;20471;-67
2023/09/20 09:06:43;;;;;;;3.85;1.80;;;18.60;99.90;;;;;;5149916;27;20142;-66
2023/09/20 09:09:10;;;;;;;3.92;1.90;;;18.70;99.90;;;;;;5150177;27;20034;-64
2023/09/20 09:11:36;;;;;;;4.47;1.73;;;18.70;99.90;;;;;;5132475;27;20054;-65
2023/09/20 09:14:03;;;;;;;2.70;1.65;;;18.70;99.90;;;;;;5151844;27;20035;-65
2023/09/20 09:16:33;;;;;;;3.20;1.80;;;18.70;99.90;;;;;;5155067;27;20046;-65
2023/09/20 09:18:59;;;;;;;3.15;1.98;;;18.80;99.90;;;;;;5153835;27;20046;-70
2023/09/20 09:21:27;;;;;;;3.53;1.65;;;18.80;99.90;;;;;;5136226;27;20038;-64
2023/09/20 09:23:53;;;;;;;3.03;1.40;;;18.80;99.90;;;;;;5155056;27;20038;-64
2023/09/20 09:26:18;;;;;;;2.60;1.40;;;18.70;99.90;;;;;;5154670;27;20098;-63
2023/09/20 09:28:45;;;;;;;4.10;1.55;;;18.60;99.90;;;;;;5154924;27;20050;-63
2023/09/20 09:31:13;;;;;;;3.97;1.55;;;18.60;99.90;;;;;;5150836;27;20371;-63
2023/09/20 09:33:39;;;;;;;2.75;1.55;;;18.60;99.90;;;;;;5154577;27;20055;-63
2023/09/20 09:36:05;;;;;;;2.78;1.60;;;18.60;99.90;;;;;;5154487;27;20478;-63
2023/09/20 09:38:34;;;;;;;3.75;1.70;;;18.60;99.90;;;;;;5136144;27;20050;-63
2023/09/20 09:41:01;;;;;;;3.75;1.70;;;18.60;99.90;;;;;;5154748;27;20390;-63
2023/09/20 09:43:28;;;;;;;3.65;1.77;;;18.60;99.90;;;;;;5152924;27;20054;-63
2023/09/20 09:46:03;;;;;;;3.97;1.75;;;18.60;99.90;;;;;;5135997;27;20039;-63
2023/09/20 09:48:32;;;;;;;3.03;1.30;;;18.50;99.90;;;;;;5154052;27;20627;-65
2023/09/20 09:51:03;;;;;;;3.63;1.38;;;18.50;99.90;;;;;;5156160;27;20038;-64
2023/09/20 09:53:30;;;;;;;2.83;1.60;;;18.60;99.90;;;;;;5157797;27;20506;-64
2023/09/20 09:55:56;;;;;;;3.40;1.27;;;18.60;99.90;;;;;;5154742;27;20091;-64
2023/09/20 09:58:22;;;;;;;3.03;1.33;;;18.60;99.90;;;;;;5136917;27;20040;-64
2023/09/20 10:00:52;;;;;;;3.15;1.60;;;18.60;99.90;;;;;;5118602;27;20039;-65
2023/09/20 10:03:32;;;;;;;3.28;1.40;;;18.60;99.90;;;;;;5136412;27;20377;-64
2023/09/20 10:06:08;;;;;;;3.08;1.52;;;18.60;99.90;;;;;;5118602;27;20043;-64
2023/09/20 10:08:38;;;;;;;3.03;1.70;;;18.50;99.90;;;;;;5136236;27;20495;-65
2023/09/20 10:11:05;;;;;;;2.85;1.40;;;18.50;99.90;;;;;;5150566;27;20047;-65
2023/09/20 10:13:34;;;;;;;2.80;1.58;;;18.50;99.90;;;;;;5137102;27;20125;-65
2023/09/20 10:16:01;;;;;;;2.55;1.50;;;18.50;99.90;;;;;;5157225;27;20046;-65
2023/09/20 10:18:54;;;;;;;2.72;1.50;;;18.60;99.90;;;;;;5156884;27;20498;-65
2023/09/20 10:21:27;;;;;;;2.40;1.52;;;18.70;99.90;;;;;;5151538;27;20078;-65
2023/09/20 10:24:00;;;;;;;2.85;1.40;;;18.70;99.90;;;;;;5136816;27;20051;-65
2023/09/20 10:26:26;;;;;;;2.88;1.58;;;18.80;99.90;;;;;;5118167;27;20043;-65
2023/09/20 10:28:59;;;;;;;2.60;1.30;;;18.80;99.90;;;;;;5136366;27;20058;-65
2023/09/20 10:31:29;;;;;;;3.67;1.88;;;18.90;99.90;;;;;;5121290;27;20364;-65
2023/09/20 10:33:56;;;;;;;3.20;1.50;;;18.90;99.90;;;;;;5136098;27;20154;-66
2023/09/20 10:36:29;;;;;;;2.50;1.42;;;18.90;99.90;;;;;;5136345;27;20490;-66
2023/09/20 10:39:21;;;;;;;3.28;1.70;;;19.00;99.90;;;;;;5131853;27;20047;-64
2023/09/20 10:42:08;;;;;;;2.30;1.25;;;19.00;99.90;;;;;;5137368;27;20076;-64
2023/09/20 10:44:38;;;;;;;3.75;1.60;;;19.10;99.90;;;;;;5157063;27;20054;-64
2023/09/20 10:47:23;;;;;;;3.45;1.33;;;19.10;99.90;;;;;;5156004;27;20051;-65
2023/09/20 10:49:54;;;;;;;2.35;1.42;;;19.10;99.90;;;;;;5138026;27;20161;-64
2023/09/20 10:52:32;;;;;;;3.53;1.50;;;19.10;99.90;;;;;;5135981;27;20483;-64
2023/09/20 10:55:20;;;;;;;2.92;1.60;;;19.10;99.90;;;;;;5136054;27;20050;-64
2023/09/20 10:57:50;;;;;;;2.90;1.40;;;19.20;99.90;;;;;;5135252;27;20399;-64
2023/09/20 11:00:25;;;;;;;2.95;1.50;;;19.20;99.90;;;;;;5136218;27;20035;-63
2023/09/20 11:02:52;;;;;;;2.78;1.63;;;19.20;99.90;;;;;;5117341;27;20392;-64
2023/09/20 11:05:18;;;;;;;3.63;1.42;;;19.30;99.90;;;;;;5135450;27;20047;-65
2023/09/20 11:07:46;;;;;;;3.53;1.75;;;19.30;99.90;;;;;;5117332;27;20051;-65
2023/09/20 11:10:13;;;;;;;3.28;1.63;;;19.30;99.90;;;;;;5127202;27;20051;-65
2023/09/20 11:12:43;;;;;;;3.42;1.90;;;19.30;99.90;;;;;;5142598;27;20078;-65
2023/09/20 11:15:10;;;;;;;2.90;1.55;;;19.30;99.90;;;;;;5117255;27;20058;-65
2023/09/20 11:17:36;;;;;;;2.53;1.30;;;19.30;99.90;;;;;;5135215;27;20051;-65
2023/09/20 11:20:06;;;;;;;3.30;1.70;;;19.40;99.90;;;;;;5134385;27;20035;-65
2023/09/20 11:22:32;;;;;;;3.90;1.63;;;19.50;99.90;;;;;;5135288;27;20122;-65
2023/09/20 11:24:58;;;;;;;2.50;1.70;;;19.50;99.90;;;;;;5135493;27;20464;-65
2023/09/20 11:27:24;;;;;;;3.22;1.52;;;19.60;99.90;;;;;;5135255;27;20051;-65
2023/09/20 11:29:50;;;;;;;2.95;1.50;;;19.60;99.90;;;;;;5117095;27;20388;-65
2023/09/20 11:32:21;;;;;;;2.97;1.65;;;19.60;99.90;;;;;;5141897;27;20050;-66
2023/09/20 11:34:49;;;;;;;3.78;2.05;;;19.70;99.90;;;;;;5134577;27;20058;-65
2023/09/20 11:37:19;;;;;;;3.40;1.45;;;19.60;99.90;;;;;;5134777;27;20051;-65
2023/09/20 11:39:49;;;;;;;5.30;1.80;;;19.60;99.90;;;;;;5155371;27;20039;-65
2023/09/20 11:42:26;;;;;;;4.60;1.80;;;19.60;99.90;;;;;;5154860;27;20122;-65
2023/09/20 11:44:56;;;;;;;3.70;1.88;;;19.50;99.90;;;;;;5155609;27;20435;-65
2023/09/20 11:47:22;;;;;;;6.13;1.90;;;19.50;99.90;;;;;;5155176;27;20049;-65
2023/09/20 11:49:48;;;;;;;3.03;1.95;;;19.50;99.90;;;;;;5137076;27;20114;-65
2023/09/20 11:52:19;;;;;;;4.22;2.13;;;19.50;99.90;;;;;;5099844;27;20039;-64
2023/09/20 11:54:47;;;;;;;3.35;1.83;;;19.60;99.90;;;;;;5134556;27;20043;-65
2023/09/20 11:57:16;;;;;;;3.05;1.70;;;19.70;99.90;;;;;;5144547;27;20070;-65
2023/09/20 11:59:43;;;;;;;2.33;1.60;;;19.60;99.90;;;;;;5154670;27;20043;-65
2023/09/20 12:02:12;;;;;;;4.03;1.88;;;19.70;99.90;;;;;;5153861;27;20046;-64
2023/09/20 12:04:38;;;;;;;4.53;1.85;;;19.70;99.90;;;;;;5135180;27;20058;-65
2023/09/20 12:07:04;;;;;;;4.10;1.90;;;19.80;99.90;;;;;;5125837;27;20050;-65
2023/09/20 12:09:30;;;;;;;3.95;2.00;;;19.90;99.90;;;;;;5136428;27;20039;-64
2023/09/20 12:11:58;;;;;;;3.75;1.90;;;20.00;99.90;;;;;;5144828;27;20055;-64
2023/09/20 12:14:23;;;;;;;4.15;1.98;;;20.10;99.90;;;;;;5133860;27;20051;-64
2023/09/20 12:16:50;;;;;;;4.03;2.13;;;20.20;99.90;;;;;;5116234;27;20054;-64
2023/09/20 12:19:18;;;;;;;3.17;1.90;;;20.30;99.90;;;;;;5134349;27;20100;-64
2023/09/20 12:21:44;;;;;;;2.85;1.67;;;20.50;99.90;;;;;;5134668;27;20069;-64
2023/09/20 12:24:13;;;;;;;3.17;1.65;;;20.60;99.90;;;;;;5134440;27;20491;-64
2023/09/20 12:26:39;;;;;;;4.43;1.90;;;20.70;99.90;;;;;;5134242;27;20038;-64
2023/09/20 12:29:06;;;;;;;4.60;1.88;;;20.80;99.90;;;;;;5134266;27;20046;-64
2023/09/20 12:31:32;;;;;;;2.60;1.55;;;20.70;99.90;;;;;;5139386;27;20502;-64
2023/09/20 12:34:00;;;;;;;5.00;1.98;;;20.70;99.90;;;;;;5131940;27;20058;-64
2023/09/20 12:36:28;;;;;;;4.97;1.92;;;20.70;99.90;;;;;;5132453;27;20066;-64
2023/09/20 12:38:54;;;;;;;3.70;1.70;;;20.70;99.90;;;;;;5148169;27;20046;-64
2023/09/20 12:41:20;;;;;;;5.97;2.42;;;20.80;99.90;;;;;;5134081;27;20043;-65
2023/09/20 12:43:47;;;;;;;5.25;2.60;;;20.90;99.90;;;;;;5153048;27;20069;-65
2023/09/20 12:46:13;;;;;;;3.78;2.20;;;21.10;99.90;;;;;;5154037;27;20053;-65
2023/09/20 12:48:39;;;;;;;3.72;1.85;;;21.10;99.90;;;;;;5144546;27;20039;-64
2023/09/20 12:51:05;;;;;;;2.90;1.63;;;21.00;99.90;;;;;;5133818;27;20079;-65
2023/09/20 12:53:33;;;;;;;3.92;1.90;;;21.00;99.90;;;;;;5133976;27;20082;-65
2023/09/20 12:56:00;;;;;;;5.47;1.65;;;21.00;99.90;;;;;;5132715;27;20100;-64
2023/09/20 12:58:26;;;;;;;2.85;1.75;;;21.00;99.90;;;;;;5131045;27;20047;-64
2023/09/20 13:00:52;;;;;;;3.55;1.70;;;21.00;99.90;;;;;;5154097;27;20043;-64
2023/09/20 13:03:18;;;;;;;2.60;1.60;;;21.00;99.90;;;;;;5153039;27;20466;-64
2023/09/20 13:05:45;;;;;;;3.53;1.52;;;21.00;99.90;;;;;;5154170;27;20039;-64
2023/09/20 13:08:13;;;;;;;2.67;1.42;;;21.00;99.90;;;;;;5153923;27;20050;-64
2023/09/20 13:10:38;;;;;;;2.60;1.40;;;21.10;99.90;;;;;;5150874;27;20039;-64
2023/09/20 13:13:08;;;;;;;2.97;1.40;;;21.20;99.90;;;;;;5132847;28;20058;-64
2023/09/20 13:15:34;;;;;;;4.18;1.60;;;21.40;99.90;;;;;;5115828;27;20054;-64
2023/09/20 13:18:01;;;;;;;2.33;1.23;;;21.50;99.90;;;;;;5132744;28;20043;-64
2023/09/20 13:20:27;;;;;;;3.65;1.40;;;21.50;99.90;;;;;;5133277;28;20051;-64
2023/09/20 13:22:54;;;;;;;3.20;1.50;;;21.50;99.90;;;;;;5115460;28;20058;-64
2023/09/20 13:25:21;;;;;;;3.13;1.50;;;21.40;99.90;;;;;;5132362;28;20055;-65
2023/09/20 13:27:50;;;;;;;3.08;1.20;;;21.40;99.90;;;;;;5115500;28;20576;-64
2023/09/20 13:30:17;;;;;;;2.33;1.20;;;21.40;99.90;;;;;;5133542;28;20039;-64
2023/09/20 13:32:46;;;;;;;2.50;1.30;;;21.50;99.90;;;;;;5134127;27;20503;-64